createdAt,value
2018-12-29T00:00:42.419Z,0.00
2018-12-29T00:03:10.035Z,0.00
2018-12-29T00:05:37.650Z,0.00
2018-12-29T00:08:05.256Z,0.00
2018-12-29T00:10:32.899Z,0.00
2018-12-29T00:13:00.500Z,0.10
2018-12-29T00:15:28.117Z,0.00
2018-12-29T00:17:55.726Z,0.10
2018-12-29T00:20:23.362Z,0.20
2018-12-29T00:22:50.985Z,0.20
2018-12-29T00:25:18.623Z,0.20
2018-12-29T00:27:46.236Z,0.20
2018-12-29T00:30:13.858Z,0.10
2018-12-29T00:32:41.464Z,0.20
2018-12-29T00:35:09.088Z,0.20
2018-12-29T00:37:36.701Z,0.10
2018-12-29T00:40:04.388Z,0.20
2018-12-29T00:42:32.000Z,0.10
2018-12-29T00:45:02.587Z,0.20
2018-12-29T00:47:28.963Z,0.10
2018-12-29T00:49:56.591Z,0.10
2018-12-29T00:52:24.189Z,0.20
2018-12-29T00:54:51.837Z,0.10
2018-12-29T00:57:19.470Z,0.20
2018-12-29T00:59:47.074Z,0.20
2018-12-29T01:02:14.690Z,0.20
2018-12-29T01:04:42.310Z,0.20
2018-12-29T01:07:09.927Z,0.20
2018-12-29T01:09:37.569Z,0.20
2018-12-29T01:12:05.169Z,0.20
2018-12-29T01:14:32.797Z,0.20
2018-12-29T01:17:00.405Z,0.20
2018-12-29T01:19:28.021Z,0.10
2018-12-29T01:21:55.632Z,0.10
2018-12-29T01:24:23.256Z,0.10
2018-12-29T01:26:50.881Z,0.10
2018-12-29T01:29:18.493Z,0.10
2018-12-29T01:31:46.130Z,0.10
2018-12-29T01:34:13.721Z,0.10
2018-12-29T01:36:41.341Z,0.10
2018-12-29T01:39:08.957Z,0.10
2018-12-29T01:41:36.588Z,0.10
2018-12-29T01:44:04.200Z,0.00
2018-12-29T01:46:31.831Z,0.00
2018-12-29T01:48:59.446Z,0.00
2018-12-29T01:51:27.069Z,0.10
2018-12-29T01:53:54.695Z,0.00
2018-12-29T01:56:22.309Z,0.00
2018-12-29T01:58:49.935Z,0.00
2018-12-29T02:01:17.569Z,0.00
2018-12-29T02:03:45.193Z,0.00
2018-12-29T02:06:12.826Z,0.00
2018-12-29T02:08:40.432Z,0.00
2018-12-29T02:11:08.048Z,0.10
2018-12-29T02:13:35.657Z,0.10
2018-12-29T02:16:03.272Z,0.10
2018-12-29T02:18:30.885Z,0.00
2018-12-29T02:20:58.523Z,0.00
2018-12-29T02:23:26.155Z,0.00
2018-12-29T02:25:54.304Z,0.10
2018-12-29T02:28:21.984Z,0.10
2018-12-29T02:30:49.610Z,0.00
2018-12-29T02:33:17.208Z,0.10
2018-12-29T02:35:44.828Z,0.20
2018-12-29T02:38:12.453Z,0.10
2018-12-29T02:40:40.069Z,0.10
2018-12-29T02:43:07.696Z,0.10
2018-12-29T02:45:35.312Z,0.10
2018-12-29T02:48:02.917Z,0.10
2018-12-29T02:50:30.561Z,0.20
2018-12-29T02:52:58.170Z,0.20
2018-12-29T02:55:25.780Z,0.20
2018-12-29T02:57:53.396Z,0.10
2018-12-29T03:00:21.005Z,0.20
2018-12-29T03:02:48.646Z,0.20
2018-12-29T03:05:16.258Z,0.30
2018-12-29T03:07:43.889Z,0.30
2018-12-29T03:10:11.502Z,0.30
2018-12-29T03:12:39.134Z,0.30
2018-12-29T03:15:06.756Z,0.30
2018-12-29T03:17:34.369Z,0.30
2018-12-29T03:20:01.998Z,0.30
2018-12-29T03:22:29.609Z,0.30
2018-12-29T03:24:57.241Z,0.30
2018-12-29T03:27:24.861Z,0.30
2018-12-29T03:29:52.477Z,0.30
2018-12-29T03:32:20.105Z,0.30
2018-12-29T03:34:47.757Z,0.30
2018-12-29T03:37:15.407Z,0.20
2018-12-29T03:39:43.028Z,0.20
2018-12-29T03:42:10.679Z,0.20
2018-12-29T03:44:38.300Z,0.30
2018-12-29T03:47:05.929Z,0.30
2018-12-29T03:49:33.555Z,0.30
2018-12-29T03:52:01.180Z,0.40
2018-12-29T03:54:28.823Z,0.30
2018-12-29T03:56:56.445Z,0.30
2018-12-29T03:59:24.082Z,0.30
2018-12-29T04:01:51.702Z,0.30
2018-12-29T04:04:19.596Z,0.30
2018-12-29T04:06:47.271Z,0.30
2018-12-29T04:09:22.367Z,0.20
2018-12-29T04:11:49.997Z,0.30
2018-12-29T04:14:17.609Z,0.40
2018-12-29T04:16:45.226Z,0.40
2018-12-29T04:19:12.861Z,0.40
2018-12-29T04:21:40.510Z,0.50
2018-12-29T04:24:08.167Z,0.50
2018-12-29T04:26:35.784Z,0.50
2018-12-29T04:29:03.583Z,0.50
2018-12-29T04:31:31.188Z,0.50
2018-12-29T04:33:58.804Z,0.50
2018-12-29T04:36:26.423Z,0.50
2018-12-29T04:38:54.048Z,0.50
2018-12-29T04:41:21.652Z,0.50
2018-12-29T04:43:49.286Z,0.50
2018-12-29T04:46:16.885Z,0.50
2018-12-29T04:48:44.517Z,0.50
2018-12-29T04:51:12.129Z,0.50
2018-12-29T04:53:39.744Z,0.60
2018-12-29T04:56:07.364Z,0.60
2018-12-29T04:58:34.977Z,0.60
2018-12-29T05:01:02.585Z,0.60
2018-12-29T05:03:30.201Z,0.60
2018-12-29T05:05:57.849Z,0.50
2018-12-29T05:08:25.458Z,0.50
2018-12-29T05:10:53.074Z,0.40
2018-12-29T05:13:20.680Z,0.40
2018-12-29T05:15:48.306Z,0.50
2018-12-29T05:18:15.955Z,0.60
2018-12-29T05:20:43.568Z,0.60
2018-12-29T05:23:11.194Z,0.50
2018-12-29T05:25:38.812Z,0.50
2018-12-29T05:28:06.413Z,0.50
2018-12-29T05:30:34.032Z,0.40
2018-12-29T05:33:01.657Z,0.50
2018-12-29T05:35:29.287Z,0.50
2018-12-29T05:37:56.893Z,0.50
2018-12-29T05:40:24.519Z,0.40
2018-12-29T05:42:52.137Z,0.40
2018-12-29T05:45:19.779Z,0.40
2018-12-29T05:47:47.394Z,0.40
2018-12-29T05:50:15.023Z,0.50
2018-12-29T05:52:42.632Z,0.40
2018-12-29T05:55:10.270Z,0.40
2018-12-29T05:57:37.907Z,0.40
2018-12-29T06:00:06.101Z,0.40
2018-12-29T06:02:33.719Z,0.40
2018-12-29T06:05:01.351Z,0.40
2018-12-29T06:07:28.953Z,0.40
2018-12-29T06:09:56.591Z,0.50
2018-12-29T06:12:24.211Z,0.50
2018-12-29T06:14:51.831Z,0.40
2018-12-29T06:17:19.461Z,0.40
2018-12-29T06:19:47.073Z,0.50
2018-12-29T06:22:14.684Z,0.40
2018-12-29T06:24:42.304Z,0.40
2018-12-29T06:27:09.912Z,0.50
2018-12-29T06:29:37.536Z,0.50
2018-12-29T06:32:05.173Z,0.30
2018-12-29T06:34:32.794Z,0.30
2018-12-29T06:37:00.409Z,0.40
2018-12-29T06:39:28.020Z,0.40
2018-12-29T06:41:55.637Z,0.70
2018-12-29T06:44:23.278Z,0.60
2018-12-29T06:46:50.901Z,0.40
2018-12-29T06:49:18.537Z,0.20
2018-12-29T06:51:46.157Z,0.10
2018-12-29T06:54:13.768Z,0.10
2018-12-29T06:56:41.387Z,0.10
2018-12-29T06:59:09.028Z,0.10
2018-12-29T07:01:36.645Z,0.10
2018-12-29T07:04:04.271Z,0.20
2018-12-29T07:06:31.876Z,0.20
2018-12-29T07:08:59.498Z,0.30
2018-12-29T07:11:27.104Z,0.40
2018-12-29T07:13:54.711Z,0.30
2018-12-29T07:16:22.341Z,0.40
2018-12-29T07:18:49.948Z,0.40
2018-12-29T07:21:17.573Z,0.40
2018-12-29T07:23:45.906Z,0.40
2018-12-29T07:26:13.577Z,0.40
2018-12-29T07:28:41.195Z,0.40
2018-12-29T07:31:08.838Z,0.50
2018-12-29T07:33:36.518Z,0.50
2018-12-29T07:36:04.159Z,0.40
2018-12-29T07:38:31.774Z,0.50
2018-12-29T07:40:59.510Z,0.50
2018-12-29T07:43:27.112Z,0.50
2018-12-29T07:45:54.742Z,0.50
2018-12-29T07:48:22.364Z,0.50
2018-12-29T07:50:49.978Z,0.50
2018-12-29T07:53:17.616Z,0.50
2018-12-29T07:55:45.244Z,0.50
2018-12-29T07:58:12.868Z,0.50
2018-12-29T08:00:40.495Z,0.40
2018-12-29T08:03:08.118Z,0.50
2018-12-29T08:05:35.739Z,0.50
2018-12-29T08:08:03.354Z,0.50
2018-12-29T08:10:30.972Z,0.60
2018-12-29T08:12:58.588Z,0.70
2018-12-29T08:15:26.205Z,0.70
2018-12-29T08:17:53.828Z,0.70
2018-12-29T08:20:21.438Z,0.70
2018-12-29T08:22:49.059Z,0.70
2018-12-29T08:25:16.695Z,0.80
2018-12-29T08:27:44.309Z,0.80
2018-12-29T08:30:11.922Z,0.70
2018-12-29T08:32:39.547Z,0.70
2018-12-29T08:35:07.179Z,0.70
2018-12-29T08:37:34.796Z,0.90
2018-12-29T08:40:02.413Z,1.00
2018-12-29T08:42:30.010Z,1.00
2018-12-29T08:44:57.631Z,1.00
2018-12-29T08:47:25.254Z,1.00
2018-12-29T08:49:52.861Z,0.90
2018-12-29T08:52:20.496Z,0.70
2018-12-29T08:54:48.101Z,0.80
2018-12-29T08:57:15.733Z,0.80
2018-12-29T08:59:43.565Z,0.80
2018-12-29T09:02:11.187Z,0.70
2018-12-29T09:04:38.804Z,0.80
2018-12-29T09:07:06.443Z,0.80
2018-12-29T09:09:34.096Z,0.80
2018-12-29T09:12:01.707Z,0.80
2018-12-29T09:14:29.317Z,0.90
2018-12-29T09:16:56.929Z,0.90
2018-12-29T09:19:27.324Z,0.90
2018-12-29T09:21:54.163Z,0.90
2018-12-29T09:24:21.772Z,1.00
2018-12-29T09:26:49.399Z,1.10
2018-12-29T09:29:17.004Z,1.00
2018-12-29T09:31:44.618Z,0.90
2018-12-29T09:34:12.225Z,0.90
2018-12-29T09:36:39.845Z,1.10
2018-12-29T09:39:07.465Z,1.10
2018-12-29T09:41:35.092Z,1.10
2018-12-29T09:44:02.721Z,1.10
2018-12-29T09:46:30.341Z,1.10
2018-12-29T09:48:57.969Z,1.20
2018-12-29T09:51:25.576Z,1.10
2018-12-29T09:53:53.200Z,1.00
2018-12-29T09:56:20.816Z,1.10
2018-12-29T09:58:48.428Z,1.10
2018-12-29T10:01:16.037Z,1.10
2018-12-29T10:03:43.672Z,1.10
2018-12-29T10:06:11.289Z,1.20
2018-12-29T10:08:38.905Z,1.30
2018-12-29T10:11:06.526Z,1.40
2018-12-29T10:13:34.136Z,1.40
2018-12-29T10:16:02.019Z,1.20
2018-12-29T10:18:29.899Z,1.30
2018-12-29T10:20:57.846Z,1.30
2018-12-29T10:23:25.815Z,1.50
2018-12-29T10:25:55.061Z,1.50
2018-12-29T10:28:22.943Z,1.50
2018-12-29T10:30:50.969Z,1.50
2018-12-29T10:33:19.871Z,1.60
2018-12-29T10:35:47.868Z,1.60
2018-12-29T10:38:15.874Z,1.40
2018-12-29T10:40:43.745Z,1.50
2018-12-29T10:43:11.729Z,1.50
2018-12-29T10:45:39.599Z,1.50
2018-12-29T10:48:07.659Z,1.50
2018-12-29T10:50:37.340Z,1.50
2018-12-29T10:53:06.290Z,1.50
2018-12-29T10:55:34.208Z,1.60
2018-12-29T10:58:02.141Z,1.80
2018-12-29T11:00:34.926Z,1.90
2018-12-29T11:02:59.811Z,2.00
2018-12-29T11:05:27.547Z,2.00
2018-12-29T11:07:55.160Z,2.10
2018-12-29T11:10:22.839Z,2.10
2018-12-29T11:12:50.482Z,2.20
2018-12-29T11:15:18.093Z,2.30
2018-12-29T11:17:45.729Z,2.50
2018-12-29T11:20:13.347Z,2.60
2018-12-29T11:22:40.971Z,2.60
2018-12-29T11:25:09.433Z,2.30
2018-12-29T11:27:37.063Z,2.30
2018-12-29T11:30:05.276Z,2.30
2018-12-29T11:32:32.881Z,2.30
2018-12-29T11:35:00.511Z,2.80
2018-12-29T11:37:28.112Z,3.10
2018-12-29T11:39:57.910Z,3.20
2018-12-29T11:42:25.543Z,3.00
2018-12-29T11:44:53.168Z,2.90
2018-12-29T11:47:20.851Z,2.80
2018-12-29T11:49:48.541Z,2.90
2018-12-29T11:52:16.153Z,2.90
2018-12-29T11:54:43.792Z,2.90
2018-12-29T11:57:11.432Z,2.90
2018-12-29T11:59:39.050Z,2.90
2018-12-29T12:02:06.681Z,2.90
2018-12-29T12:04:34.301Z,2.90
2018-12-29T12:07:01.912Z,2.80
2018-12-29T12:09:30.394Z,2.80
2018-12-29T12:11:58.113Z,2.70
2018-12-29T12:14:25.751Z,2.60
2018-12-29T12:16:53.381Z,2.60
2018-12-29T12:19:21.091Z,2.70
2018-12-29T12:21:48.716Z,2.70
2018-12-29T12:24:16.342Z,2.70
2018-12-29T12:26:44.020Z,2.70
2018-12-29T12:29:11.663Z,2.70
2018-12-29T12:31:39.486Z,2.70
2018-12-29T12:34:07.276Z,2.70
2018-12-29T12:36:35.256Z,2.80
2018-12-29T12:39:03.842Z,2.80
2018-12-29T12:41:31.759Z,2.80
2018-12-29T12:43:59.769Z,2.80
2018-12-29T12:46:27.445Z,2.80
2018-12-29T12:48:55.482Z,2.90
2018-12-29T12:51:23.178Z,3.00
2018-12-29T12:53:51.087Z,3.00
2018-12-29T12:56:18.702Z,3.00
2018-12-29T12:58:46.322Z,3.00
2018-12-29T13:01:14.205Z,3.00
2018-12-29T13:03:41.825Z,2.90
2018-12-29T13:06:09.432Z,3.00
2018-12-29T13:08:37.055Z,3.00
2018-12-29T13:11:04.695Z,2.90
2018-12-29T13:13:32.314Z,3.00
2018-12-29T13:15:59.931Z,3.00
2018-12-29T13:18:27.532Z,3.00
2018-12-29T13:20:55.150Z,3.00
2018-12-29T13:23:22.752Z,2.90
2018-12-29T13:25:50.374Z,3.00
2018-12-29T13:28:18.354Z,3.00
2018-12-29T13:30:45.970Z,3.20
2018-12-29T13:33:13.573Z,3.10
2018-12-29T13:35:41.194Z,3.10
2018-12-29T13:38:08.827Z,3.10
2018-12-29T13:40:36.432Z,3.10
2018-12-29T13:43:04.049Z,3.20
2018-12-29T13:45:31.669Z,3.20
2018-12-29T13:47:59.269Z,3.20
2018-12-29T13:50:26.892Z,3.20
2018-12-29T13:52:54.501Z,3.20
2018-12-29T13:55:22.139Z,3.20
2018-12-29T13:57:49.837Z,3.30
2018-12-29T14:00:17.454Z,3.20
2018-12-29T14:02:45.056Z,3.20
2018-12-29T14:05:12.685Z,3.30
2018-12-29T14:07:40.585Z,3.30
2018-12-29T14:10:08.198Z,3.40
2018-12-29T14:12:35.821Z,3.50
2018-12-29T14:15:03.448Z,3.60
2018-12-29T14:17:31.049Z,3.60
2018-12-29T14:19:58.936Z,3.60
2018-12-29T14:22:26.595Z,3.50
2018-12-29T14:24:54.265Z,3.50
2018-12-29T14:27:21.877Z,3.40
2018-12-29T14:29:49.507Z,3.40
2018-12-29T14:32:17.181Z,3.30
2018-12-29T14:34:44.793Z,3.30
2018-12-29T14:37:12.413Z,3.20
2018-12-29T14:39:40.037Z,3.20
2018-12-29T14:42:07.657Z,3.20
2018-12-29T14:44:35.262Z,3.20
2018-12-29T14:47:03.061Z,3.10
2018-12-29T14:49:30.691Z,3.00
2018-12-29T14:51:58.313Z,3.00
2018-12-29T14:54:25.926Z,3.00
2018-12-29T14:56:53.544Z,3.00
2018-12-29T14:59:21.329Z,3.00
2018-12-29T15:01:48.959Z,2.90
2018-12-29T15:04:16.571Z,2.80
2018-12-29T15:06:44.188Z,2.90
2018-12-29T15:09:11.872Z,2.80
2018-12-29T15:11:39.489Z,2.80
2018-12-29T15:14:07.125Z,2.80
2018-12-29T15:16:35.020Z,2.80
2018-12-29T15:19:02.641Z,2.80
2018-12-29T15:21:30.533Z,2.80
2018-12-29T15:23:58.154Z,2.80
2018-12-29T15:26:25.816Z,2.60
2018-12-29T15:28:53.424Z,2.60
2018-12-29T15:31:21.029Z,2.50
2018-12-29T15:33:48.659Z,2.50
2018-12-29T15:36:16.415Z,2.50
2018-12-29T15:38:44.077Z,2.50
2018-12-29T15:41:11.687Z,2.50
2018-12-29T15:43:39.315Z,2.40
2018-12-29T15:46:06.916Z,2.40
2018-12-29T15:48:34.541Z,2.30
2018-12-29T15:51:02.141Z,2.40
2018-12-29T15:53:29.762Z,2.40
2018-12-29T15:55:57.375Z,2.40
2018-12-29T15:58:24.986Z,2.50
2018-12-29T16:00:52.669Z,2.50
2018-12-29T16:03:20.296Z,2.50
2018-12-29T16:05:48.293Z,2.60
2018-12-29T16:08:15.911Z,2.60
2018-12-29T16:10:43.588Z,2.60
2018-12-29T16:13:11.208Z,2.50
2018-12-29T16:15:38.825Z,2.30
2018-12-29T16:18:06.432Z,2.20
2018-12-29T16:20:34.134Z,2.20
2018-12-29T16:23:01.814Z,2.10
2018-12-29T16:25:29.434Z,2.10
2018-12-29T16:27:57.229Z,2.10
2018-12-29T16:30:25.318Z,2.10
2018-12-29T16:32:53.151Z,2.10
2018-12-29T16:35:20.839Z,2.10
2018-12-29T16:37:48.479Z,2.10
2018-12-29T16:40:16.100Z,2.10
2018-12-29T16:42:43.740Z,2.10
2018-12-29T16:45:11.340Z,2.10
2018-12-29T16:47:38.972Z,2.10
2018-12-29T16:50:07.484Z,2.00
2018-12-29T16:52:35.167Z,2.00
2018-12-29T16:55:02.855Z,1.90
2018-12-29T16:57:30.486Z,1.90
2018-12-29T16:59:58.094Z,1.90
2018-12-29T17:02:25.720Z,1.90
2018-12-29T17:04:53.390Z,1.90
2018-12-29T17:07:21.041Z,1.80
2018-12-29T17:09:48.665Z,1.80
2018-12-29T17:12:16.448Z,1.90
2018-12-29T17:14:44.073Z,1.90
2018-12-29T17:17:11.719Z,1.80
2018-12-29T17:19:39.709Z,1.80
2018-12-29T17:22:07.336Z,1.80
2018-12-29T17:24:34.957Z,1.80
2018-12-29T17:27:02.853Z,1.70
2018-12-29T17:29:30.497Z,1.70
2018-12-29T17:31:58.140Z,1.70
2018-12-29T17:34:25.778Z,1.70
2018-12-29T17:36:53.659Z,1.70
2018-12-29T17:39:21.300Z,1.70
2018-12-29T17:41:48.921Z,1.70
2018-12-29T17:44:16.555Z,1.60
2018-12-29T17:46:45.626Z,1.70
2018-12-29T17:49:13.486Z,1.60
2018-12-29T17:51:41.107Z,1.60
2018-12-29T17:54:08.717Z,1.60
2018-12-29T17:56:36.343Z,1.60
2018-12-29T17:59:04.238Z,1.70
2018-12-29T18:01:31.857Z,1.70
2018-12-29T18:03:59.484Z,1.80
2018-12-29T18:06:27.098Z,1.80
2018-12-29T18:08:54.997Z,1.70
2018-12-29T18:11:22.625Z,1.80
2018-12-29T18:13:50.236Z,1.80
2018-12-29T18:16:18.025Z,1.90
2018-12-29T18:18:45.666Z,2.00
2018-12-29T18:21:13.346Z,2.10
2018-12-29T18:23:40.974Z,2.20
2018-12-29T18:26:08.653Z,2.20
2018-12-29T18:28:36.355Z,2.20
2018-12-29T18:31:04.043Z,2.20
2018-12-29T18:33:37.274Z,2.20
2018-12-29T18:36:01.097Z,2.30
2018-12-29T18:38:28.735Z,2.30
2018-12-29T18:40:56.353Z,2.30
2018-12-29T18:43:23.957Z,2.30
2018-12-29T18:45:51.560Z,2.40
2018-12-29T18:48:19.177Z,2.40
2018-12-29T18:50:47.087Z,2.50
2018-12-29T18:53:14.696Z,2.50
2018-12-29T18:55:42.321Z,2.60
2018-12-29T18:58:09.933Z,2.70
2018-12-29T19:00:37.542Z,2.70
2018-12-29T19:03:05.213Z,2.80
2018-12-29T19:05:32.997Z,2.80
2018-12-29T19:08:00.645Z,2.80
2018-12-29T19:10:28.290Z,2.80
2018-12-29T19:12:55.915Z,2.90
2018-12-29T19:15:23.973Z,2.90
2018-12-29T19:17:51.992Z,2.90
2018-12-29T19:20:20.103Z,2.90
2018-12-29T19:22:47.778Z,2.90
2018-12-29T19:25:15.516Z,2.90
2018-12-29T19:27:43.217Z,2.90
2018-12-29T19:30:10.911Z,2.90
2018-12-29T19:32:38.521Z,2.90
2018-12-29T19:35:09.076Z,2.90
2018-12-29T19:37:36.682Z,2.80
2018-12-29T19:40:05.573Z,2.80
2018-12-29T19:42:33.203Z,2.80
2018-12-29T19:45:00.813Z,2.70
2018-12-29T19:47:28.585Z,2.70
2018-12-29T19:49:56.428Z,2.70
2018-12-29T19:52:24.034Z,2.70
2018-12-29T19:54:51.664Z,2.70
2018-12-29T19:57:19.541Z,2.70
2018-12-29T19:59:47.203Z,2.70
2018-12-29T20:02:15.137Z,2.70
2018-12-29T20:04:43.094Z,2.70
2018-12-29T20:07:11.097Z,2.70
2018-12-29T20:09:39.010Z,2.70
2018-12-29T20:12:06.604Z,2.70
2018-12-29T20:14:34.232Z,2.60
2018-12-29T20:17:01.838Z,2.60
2018-12-29T20:19:29.465Z,2.60
2018-12-29T20:21:57.076Z,2.60
2018-12-29T20:24:24.782Z,2.60
2018-12-29T20:26:52.403Z,2.60
2018-12-29T20:29:20.037Z,2.60
2018-12-29T20:31:47.648Z,2.60
2018-12-29T20:34:15.284Z,2.60
2018-12-29T20:36:42.876Z,2.60
2018-12-29T20:39:10.513Z,2.60
2018-12-29T20:41:38.193Z,2.60
2018-12-29T20:44:05.813Z,2.60
2018-12-29T20:46:33.444Z,2.70
2018-12-29T20:49:01.068Z,2.70
2018-12-29T20:51:29.065Z,2.80
2018-12-29T20:53:56.673Z,2.80
2018-12-29T20:56:24.292Z,2.80
2018-12-29T20:58:51.901Z,2.70
2018-12-29T21:01:19.521Z,2.70
2018-12-29T21:03:47.130Z,2.70
2018-12-29T21:06:14.771Z,2.70
2018-12-29T21:08:42.377Z,2.80
2018-12-29T21:11:09.993Z,2.70
2018-12-29T21:13:37.674Z,2.70
2018-12-29T21:16:05.353Z,2.60
2018-12-29T21:18:32.969Z,2.60
2018-12-29T21:21:00.623Z,2.70
2018-12-29T21:23:28.232Z,2.70
2018-12-29T21:25:55.924Z,2.70
2018-12-29T21:28:23.547Z,2.70
2018-12-29T21:30:51.166Z,2.70
2018-12-29T21:33:18.845Z,2.70
2018-12-29T21:35:46.478Z,2.70
2018-12-29T21:38:14.103Z,2.70
2018-12-29T21:40:41.755Z,2.60
2018-12-29T21:43:09.413Z,2.60
2018-12-29T21:45:37.123Z,2.50
2018-12-29T21:48:04.724Z,2.60
2018-12-29T21:50:32.341Z,2.50
2018-12-29T21:52:59.948Z,2.60
2018-12-29T21:55:27.561Z,2.60
2018-12-29T21:57:55.206Z,2.60
2018-12-29T22:00:22.825Z,2.60
2018-12-29T22:02:50.431Z,2.60
2018-12-29T22:05:18.125Z,2.60
2018-12-29T22:07:45.736Z,2.60
2018-12-29T22:10:13.358Z,2.60
2018-12-29T22:12:40.983Z,2.70
2018-12-29T22:15:08.596Z,2.80
2018-12-29T22:17:36.278Z,2.90
2018-12-29T22:20:04.581Z,2.90
2018-12-29T22:22:32.193Z,3.10
2018-12-29T22:24:59.794Z,3.20
2018-12-29T22:27:27.407Z,3.30
2018-12-29T22:29:55.023Z,3.40
2018-12-29T22:32:22.636Z,3.50
2018-12-29T22:34:50.255Z,3.50
2018-12-29T22:37:17.869Z,3.60
2018-12-29T22:39:45.476Z,3.60
2018-12-29T22:42:13.092Z,3.60
2018-12-29T22:44:40.705Z,3.60
2018-12-29T22:47:08.324Z,3.70
2018-12-29T22:49:35.928Z,3.70
2018-12-29T22:52:03.564Z,3.80
2018-12-29T22:54:31.187Z,3.90
2018-12-29T22:56:58.811Z,3.90
2018-12-29T22:59:26.414Z,4.00
2018-12-29T23:01:54.038Z,4.10
2018-12-29T23:04:21.651Z,4.00
2018-12-29T23:06:49.341Z,4.00
2018-12-29T23:09:17.234Z,4.00
2018-12-29T23:11:44.931Z,4.00
2018-12-29T23:14:12.536Z,4.10
2018-12-29T23:16:40.233Z,4.10
2018-12-29T23:19:07.845Z,4.10
2018-12-29T23:21:35.546Z,4.10
2018-12-29T23:24:03.543Z,4.10
2018-12-29T23:26:31.224Z,4.10
2018-12-29T23:28:58.851Z,4.10
2018-12-29T23:31:26.506Z,4.10
2018-12-29T23:33:54.212Z,4.10
2018-12-29T23:36:22.004Z,4.10
2018-12-29T23:38:49.631Z,4.20
2018-12-29T23:41:17.255Z,4.30
2018-12-29T23:43:45.163Z,4.30
2018-12-29T23:46:12.787Z,4.30
2018-12-29T23:48:40.477Z,4.20
2018-12-29T23:51:08.085Z,4.20
2018-12-29T23:53:35.777Z,4.20
2018-12-29T23:56:03.702Z,4.20
2018-12-29T23:58:31.376Z,4.20
